Date,TemperatureHighF,TemperatureAvgF,TemperatureLowF,DewpointHighF,DewpointAvgF,DewpointLowF,HumidityHigh,HumidityAvg,HumidityLow,PressureMaxIn,PressureMinIn,WindSpeedMaxMPH,WindSpeedAvgMPH,GustSpeedMaxMPH,PrecipitationSumIn
2013-10-1,78.8,61.1,45.5,50.1,45.9,42.3,91,62,28,29.90,29.79,8,1,10,0.00
2013-10-2,78.6,61.7,48.9,47.3,43.4,35.1,86,56,22,29.91,29.81,14,2,21,0.00
2013-10-3,75.8,61.8,42.8,40.4,32.1,20.3,81,41,13,29.98,29.85,18,3,26,0.00
2013-10-4,83.0,69.9,57.6,34.1,26.3,19.2,40,21,11,29.97,29.89,17,2,22,0.00
2013-10-5,85.7,64.2,45.2,37.8,33.1,26.6,68,36,13,30.07,29.97,10,1,12,0.00
2013-10-6,85.9,62.1,42.1,39.4,35.1,27.9,76,42,14,30.01,29.89,5,0,7,0.00
2013-10-7,83.8,61.4,43.6,46.5,38.2,24.2,76,48,12,29.89,29.74,9,1,10,0.00
2013-10-8,78.1,59.2,44.2,46.7,41.5,37.6,81,55,24,29.79,29.60,10,1,12,0.00
2013-10-9,73.9,59.2,44.8,44.1,40.8,34.3,82,54,26,29.65,29.50,10,1,14,0.00
2013-10-10,72.8,56.4,46.1,49.1,43.4,38.6,88,64,33,29.89,29.64,10,1,12,0.00
2013-10-11,67.9,51.8,44.5,47.9,45.2,41.9,94,80,46,29.99,29.87,9,1,12,0.00
2013-10-12,69.8,53.9,40.2,49.0,43.2,37.6,93,70,42,29.90,29.76,12,1,14,0.00
2013-10-13,75.8,57.1,42.6,46.1,41.2,34.9,90,60,24,29.95,29.81,9,1,13,0.00
2013-10-14,81.1,58.0,40.6,43.5,38.3,34.3,87,54,19,30.00,29.88,9,1,10,0.00
2013-10-15,85.5,59.3,40.2,41.3,35.4,28.7,83,48,13,29.93,29.83,7,0,13,0.00
2013-10-16,84.0,59.2,40.6,37.3,34.3,28.9,77,45,14,29.98,29.88,7,0,11,0.00
2013-10-17,84.0,59.0,40.8,41.5,35.7,30.5,79,48,16,29.97,29.84,9,0,12,0.00
2013-10-18,79.4,56.6,40.3,44.2,39.5,35.2,83,58,25,29.93,29.87,10,1,10,0.00
2013-10-19,86.3,58.4,39.5,44.7,40.6,35.5,89,59,17,29.96,29.87,8,0,10,0.00
2013-10-20,78.6,54.7,39.9,46.0,42.7,36.6,92,69,27,29.91,29.79,10,1,12,0.00
2013-10-21,73.9,54.3,45.1,49.6,46.1,43.2,94,77,41,29.90,29.79,7,0,8,0.00
2013-10-22,78.5,54.3,43.8,50.6,46.1,42.2,94,77,37,29.92,29.81,8,1,10,0.00
2013-10-23,74.2,52.3,43.8,50.4,45.8,42.2,94,81,36,29.87,29.78,10,1,12,0.00
2013-10-24,66.3,51.6,45.5,48.4,45.9,42.2,93,82,51,29.99,29.85,7,1,10,0.00
2013-10-25,71.8,52.6,40.8,49.1,44.2,38.4,94,76,43,30.06,29.97,7,0,10,0.01
2013-10-26,82.0,56.1,40.5,47.9,42.6,37.5,91,66,25,30.03,29.90,7,0,11,0.00
2013-10-27,62.9,50.7,43.8,48.6,44.8,40.6,94,81,55,29.92,29.52,14,1,16,0.00
2013-10-28,66.0,51.4,39.3,44.8,41.0,36.3,90,70,37,29.70,29.55,10,1,14,0.00
2013-10-29,65.5,51.5,41.8,46.4,42.9,38.8,90,74,47,29.94,29.70,9,1,11,0.00
2013-10-30,67.9,50.8,38.6,46.0,40.7,35.9,92,71,41,30.04,29.94,11,1,11,0.01
2013-10-31,44.2,42.3,40.2,37.8,37.1,36.1,86,82,77,30.02,30.01,2,0,4,0.00